Cap Theodora — SVAM5 — position and weather

sailwx.info

Track history (hours):
 
Tides and Currents Weather Stations Pressure Air Temp Water Temp Dewpoint Dewpoint Depression Visibility Wind Speed Wind Dir Waves Ship Positions

Cap Theodora

Last reported at 2016-Jul-29 04:30 UTC. Time now 2016-Aug-24 16:12 UTC.
Position N 01°60' E 102°13'.
Warning: this ship's position is 26 days out of date.

Length 274 m; draft 8.6 m.

Type: Tanker. MMSI: 240840000.

Date/timePositionNaut miles runAvg speedWind from/ knotsBaromVisibWave heightAir tempDewpointWater temp
2016-Jul-29 04:30N 01°60' E 102°13'8 8.7
2016-Jul-29 03:32N 01°56' E 102°21'9 8.9
2016-Jul-29 02:33N 01°52' E 102°29'10 9.1
2016-Jul-29 01:28N 01°47' E 102°37'10 8.9
2016-Jul-29 00:19N 01°43' E 102°47'61 8.4
2016-Jul-28 17:06N 01°11' E 103°39'610.0
2016-Jul-28 16:30N 01°08' E 103°44'9 8.8
2016-Jul-28 15:32N 01°12' E 103°52'4 3.6
2016-Jul-28 14:22N 01°15' E 103°54'0 0.0
2016-Jul-28 13:31N 01°15' E 103°54'0 0.0
2016-Jul-28 12:28N 01°15' E 103°54'0 0.0
2016-Jul-28 11:16N 01°15' E 103°54'0 0.0
2016-Jul-28 10:28N 01°15' E 103°54'0 0.0
2016-Jul-28 09:16N 01°15' E 103°54'0 0.2
2016-Jul-28 08:10N 01°15' E 103°54'0 0.1
2016-Jul-28 05:13N 01°15' E 103°54'0 0.4
2016-Jul-28 04:28N 01°15' E 103°54'0 0.2
2016-Jul-28 03:28N 01°15' E 103°54'0 0.1
2016-Jul-28 02:28N 01°15' E 103°54'4 2.0
2016-Jul-28 00:33N 01°16' E 103°58'2 2.2
2016-Jul-27 23:33N 01°16' E 104°00'4 3.9
2016-Jul-27 22:33N 01°17' E 104°04'6 4.9
2016-Jul-27 21:25N 01°17' E 104°10'  
Track history (hours):
 
Tides and Currents Weather Stations Pressure Air Temp Water Temp Dewpoint Dewpoint Depression Visibility Wind Speed Wind Dir Waves Ship Positions

Cap Theodora

Last reported at 2016-Jul-29 04:30 UTC. Time now 2016-Aug-24 16:12 UTC.
Position N 01°60' E 102°13'.
Warning: this ship's position is 26 days out of date.

Length 274 m; draft 8.6 m.

Type: Tanker. MMSI: 240840000.

Date/timePositionNaut miles runAvg speedWind from/ knotsBaromVisibWave heightAir tempDewpointWater temp
2016-Jul-29 04:30N 01°60' E 102°13'8 8.7
2016-Jul-29 03:32N 01°56' E 102°21'9 8.9
2016-Jul-29 02:33N 01°52' E 102°29'10 9.1
2016-Jul-29 01:28N 01°47' E 102°37'10 8.9
2016-Jul-29 00:19N 01°43' E 102°47'61 8.4
2016-Jul-28 17:06N 01°11' E 103°39'610.0
2016-Jul-28 16:30N 01°08' E 103°44'9 8.8
2016-Jul-28 15:32N 01°12' E 103°52'4 3.6
2016-Jul-28 14:22N 01°15' E 103°54'0 0.0
2016-Jul-28 13:31N 01°15' E 103°54'0 0.0
2016-Jul-28 12:28N 01°15' E 103°54'0 0.0
2016-Jul-28 11:16N 01°15' E 103°54'0 0.0
2016-Jul-28 10:28N 01°15' E 103°54'0 0.0
2016-Jul-28 09:16N 01°15' E 103°54'0 0.2
2016-Jul-28 08:10N 01°15' E 103°54'0 0.1
2016-Jul-28 05:13N 01°15' E 103°54'0 0.4
2016-Jul-28 04:28N 01°15' E 103°54'0 0.2
2016-Jul-28 03:28N 01°15' E 103°54'0 0.1
2016-Jul-28 02:28N 01°15' E 103°54'4 2.0
2016-Jul-28 00:33N 01°16' E 103°58'2 2.2
2016-Jul-27 23:33N 01°16' E 104°00'4 3.9
2016-Jul-27 22:33N 01°17' E 104°04'6 4.9
2016-Jul-27 21:25N 01°17' E 104°10'  

Dump ship's entire track history